sensor_id;sensor_type;location;lat;lon;timestamp;P1;durP1;ratioP1;P2;durP2;ratioP2
5979;SDS011;3016;50.308;8.258;2023-07-31T00:00:19;20.37;;;2.60;;
5979;SDS011;3016;50.308;8.258;2023-07-31T00:03:20;21.60;;;2.77;;
5979;SDS011;3016;50.308;8.258;2023-07-31T00:06:21;19.20;;;2.47;;
5979;SDS011;3016;50.308;8.258;2023-07-31T00:09:21;26.00;;;4.23;;
5979;SDS011;3016;50.308;8.258;2023-07-31T00:12:22;18.60;;;2.40;;
5979;SDS011;3016;50.308;8.258;2023-07-31T00:15:23;19.50;;;2.83;;
5979;SDS011;3016;50.308;8.258;2023-07-31T00:18:23;20.53;;;2.70;;
5979;SDS011;3016;50.308;8.258;2023-07-31T00:21:24;22.60;;;2.90;;
5979;SDS011;3016;50.308;8.258;2023-07-31T00:24:25;20.30;;;2.23;;
5979;SDS011;3016;50.308;8.258;2023-07-31T00:27:26;18.50;;;2.57;;
5979;SDS011;3016;50.308;8.258;2023-07-31T00:30:26;19.73;;;2.60;;
5979;SDS011;3016;50.308;8.258;2023-07-31T00:33:27;22.77;;;3.10;;
5979;SDS011;3016;50.308;8.258;2023-07-31T00:36:28;20.37;;;2.67;;
5979;SDS011;3016;50.308;8.258;2023-07-31T00:39:29;18.50;;;2.20;;
5979;SDS011;3016;50.308;8.258;2023-07-31T00:42:30;21.93;;;2.80;;
5979;SDS011;3016;50.308;8.258;2023-07-31T00:45:31;18.87;;;2.60;;
5979;SDS011;3016;50.308;8.258;2023-07-31T00:48:33;19.93;;;2.37;;
5979;SDS011;3016;50.308;8.258;2023-07-31T00:51:35;19.73;;;2.90;;
5979;SDS011;3016;50.308;8.258;2023-07-31T00:54:35;18.77;;;2.50;;
5979;SDS011;3016;50.308;8.258;2023-07-31T00:57:36;19.40;;;3.10;;
5979;SDS011;3016;50.308;8.258;2023-07-31T01:00:41;25.20;;;3.13;;
5979;SDS011;3016;50.308;8.258;2023-07-31T01:03:42;19.93;;;2.50;;
5979;SDS011;3016;50.308;8.258;2023-07-31T01:10:04;19.13;;;2.50;;
5979;SDS011;3016;50.308;8.258;2023-07-31T01:13:13;19.93;;;2.40;;
5979;SDS011;3016;50.308;8.258;2023-07-31T01:16:14;22.40;;;3.57;;
5979;SDS011;3016;50.308;8.258;2023-07-31T01:19:15;18.93;;;2.40;;
5979;SDS011;3016;50.308;8.258;2023-07-31T01:26:11;19.23;;;2.23;;
5979;SDS011;3016;50.308;8.258;2023-07-31T01:29:17;19.90;;;3.10;;
5979;SDS011;3016;50.308;8.258;2023-07-31T01:32:27;19.30;;;2.60;;
5979;SDS011;3016;50.308;8.258;2023-07-31T01:35:28;18.80;;;2.70;;
5979;SDS011;3016;50.308;8.258;2023-07-31T01:38:29;19.30;;;2.63;;
5979;SDS011;3016;50.308;8.258;2023-07-31T01:41:30;19.47;;;2.57;;
5979;SDS011;3016;50.308;8.258;2023-07-31T01:44:30;19.13;;;2.80;;
5979;SDS011;3016;50.308;8.258;2023-07-31T01:47:32;22.80;;;2.27;;
5979;SDS011;3016;50.308;8.258;2023-07-31T01:50:33;21.70;;;2.50;;
5979;SDS011;3016;50.308;8.258;2023-07-31T01:53:33;23.53;;;2.20;;
5979;SDS011;3016;50.308;8.258;2023-07-31T01:56:34;21.53;;;2.40;;
5979;SDS011;3016;50.308;8.258;2023-07-31T01:59:35;19.60;;;2.80;;
5979;SDS011;3016;50.308;8.258;2023-07-31T02:02:35;21.90;;;2.80;;
5979;SDS011;3016;50.308;8.258;2023-07-31T02:05:36;18.17;;;2.30;;
5979;SDS011;3016;50.308;8.258;2023-07-31T02:08:44;19.90;;;2.30;;
5979;SDS011;3016;50.308;8.258;2023-07-31T02:11:44;19.53;;;3.20;;
5979;SDS011;3016;50.308;8.258;2023-07-31T02:14:45;19.63;;;2.33;;
5979;SDS011;3016;50.308;8.258;2023-07-31T02:17:46;21.10;;;2.70;;
5979;SDS011;3016;50.308;8.258;2023-07-31T02:20:50;19.83;;;2.57;;
5979;SDS011;3016;50.308;8.258;2023-07-31T02:23:51;19.93;;;2.73;;
5979;SDS011;3016;50.308;8.258;2023-07-31T02:26:52;19.20;;;2.33;;
5979;SDS011;3016;50.308;8.258;2023-07-31T02:29:52;18.70;;;2.47;;
5979;SDS011;3016;50.308;8.258;2023-07-31T02:32:54;21.93;;;2.43;;
5979;SDS011;3016;50.308;8.258;2023-07-31T02:35:54;18.50;;;2.87;;
5979;SDS011;3016;50.308;8.258;2023-07-31T02:38:55;19.73;;;2.53;;
5979;SDS011;3016;50.308;8.258;2023-07-31T02:41:56;19.97;;;2.70;;
5979;SDS011;3016;50.308;8.258;2023-07-31T02:44:56;19.40;;;3.00;;
5979;SDS011;3016;50.308;8.258;2023-07-31T02:47:57;21.40;;;2.67;;
5979;SDS011;3016;50.308;8.258;2023-07-31T02:50:58;19.73;;;2.83;;
5979;SDS011;3016;50.308;8.258;2023-07-31T02:53:58;18.53;;;2.67;;
5979;SDS011;3016;50.308;8.258;2023-07-31T02:56:59;20.40;;;3.17;;
5979;SDS011;3016;50.308;8.258;2023-07-31T03:00:00;19.60;;;3.23;;
5979;SDS011;3016;50.308;8.258;2023-07-31T03:03:00;20.97;;;3.90;;
5979;SDS011;3016;50.308;8.258;2023-07-31T03:06:01;18.00;;;2.13;;
5979;SDS011;3016;50.308;8.258;2023-07-31T03:09:02;19.47;;;2.93;;
5979;SDS011;3016;50.308;8.258;2023-07-31T03:12:03;21.17;;;3.63;;
5979;SDS011;3016;50.308;8.258;2023-07-31T03:15:04;19.93;;;2.90;;
5979;SDS011;3016;50.308;8.258;2023-07-31T03:18:05;18.30;;;2.43;;
5979;SDS011;3016;50.308;8.258;2023-07-31T03:21:05;19.00;;;2.80;;
5979;SDS011;3016;50.308;8.258;2023-07-31T03:24:06;21.03;;;3.17;;
5979;SDS011;3016;50.308;8.258;2023-07-31T03:27:07;19.70;;;3.10;;
5979;SDS011;3016;50.308;8.258;2023-07-31T03:30:07;19.60;;;2.50;;
5979;SDS011;3016;50.308;8.258;2023-07-31T03:33:08;18.70;;;2.60;;
5979;SDS011;3016;50.308;8.258;2023-07-31T03:36:09;18.20;;;2.87;;
5979;SDS011;3016;50.308;8.258;2023-07-31T03:39:10;19.63;;;3.03;;
5979;SDS011;3016;50.308;8.258;2023-07-31T03:42:10;19.73;;;2.47;;
5979;SDS011;3016;50.308;8.258;2023-07-31T03:45:11;18.70;;;2.43;;
5979;SDS011;3016;50.308;8.258;2023-07-31T03:48:14;21.57;;;3.10;;
5979;SDS011;3016;50.308;8.258;2023-07-31T03:51:16;19.97;;;2.23;;
5979;SDS011;3016;50.308;8.258;2023-07-31T03:54:17;23.77;;;2.97;;
5979;SDS011;3016;50.308;8.258;2023-07-31T03:57:18;17.50;;;2.00;;
5979;SDS011;3016;50.308;8.258;2023-07-31T04:00:19;19.70;;;2.60;;
5979;SDS011;3016;50.308;8.258;2023-07-31T04:03:20;18.90;;;2.10;;
5979;SDS011;3016;50.308;8.258;2023-07-31T04:06:21;21.17;;;2.50;;
5979;SDS011;3016;50.308;8.258;2023-07-31T04:09:22;19.40;;;2.70;;
5979;SDS011;3016;50.308;8.258;2023-07-31T04:12:22;19.00;;;2.03;;
5979;SDS011;3016;50.308;8.258;2023-07-31T04:15:23;17.90;;;2.40;;
5979;SDS011;3016;50.308;8.258;2023-07-31T04:18:24;18.30;;;2.40;;
5979;SDS011;3016;50.308;8.258;2023-07-31T04:21:26;20.40;;;3.10;;
5979;SDS011;3016;50.308;8.258;2023-07-31T04:24:26;18.63;;;2.87;;
5979;SDS011;3016;50.308;8.258;2023-07-31T04:27:27;21.30;;;2.70;;
5979;SDS011;3016;50.308;8.258;2023-07-31T04:30:28;24.77;;;2.70;;
5979;SDS011;3016;50.308;8.258;2023-07-31T04:33:28;18.77;;;2.53;;
5979;SDS011;3016;50.308;8.258;2023-07-31T04:36:29;20.67;;;2.50;;
5979;SDS011;3016;50.308;8.258;2023-07-31T04:39:30;18.30;;;2.40;;
5979;SDS011;3016;50.308;8.258;2023-07-31T04:42:30;18.27;;;2.60;;
5979;SDS011;3016;50.308;8.258;2023-07-31T04:45:31;18.10;;;2.30;;
5979;SDS011;3016;50.308;8.258;2023-07-31T04:48:31;17.97;;;2.27;;
5979;SDS011;3016;50.308;8.258;2023-07-31T04:51:32;19.77;;;3.10;;
5979;SDS011;3016;50.308;8.258;2023-07-31T04:54:33;19.00;;;2.60;;
5979;SDS011;3016;50.308;8.258;2023-07-31T04:57:33;18.60;;;2.07;;
5979;SDS011;3016;50.308;8.258;2023-07-31T05:00:34;19.03;;;2.80;;
5979;SDS011;3016;50.308;8.258;2023-07-31T05:03:35;19.80;;;2.70;;
5979;SDS011;3016;50.308;8.258;2023-07-31T05:06:35;17.90;;;2.40;;
5979;SDS011;3016;50.308;8.258;2023-07-31T05:09:36;19.10;;;2.40;;
5979;SDS011;3016;50.308;8.258;2023-07-31T05:12:39;20.00;;;4.10;;
5979;SDS011;3016;50.308;8.258;2023-07-31T05:15:40;22.10;;;2.97;;
5979;SDS011;3016;50.308;8.258;2023-07-31T05:18:41;21.10;;;2.63;;
5979;SDS011;3016;50.308;8.258;2023-07-31T05:21:42;18.30;;;2.27;;
5979;SDS011;3016;50.308;8.258;2023-07-31T05:24:43;18.93;;;2.87;;
5979;SDS011;3016;50.308;8.258;2023-07-31T05:27:43;22.83;;;2.30;;
5979;SDS011;3016;50.308;8.258;2023-07-31T05:30:44;21.90;;;2.87;;
5979;SDS011;3016;50.308;8.258;2023-07-31T05:33:44;21.60;;;3.00;;
5979;SDS011;3016;50.308;8.258;2023-07-31T05:36:45;19.30;;;2.73;;
5979;SDS011;3016;50.308;8.258;2023-07-31T05:39:46;18.23;;;2.70;;
5979;SDS011;3016;50.308;8.258;2023-07-31T05:42:46;43.37;;;3.27;;
5979;SDS011;3016;50.308;8.258;2023-07-31T05:45:47;24.70;;;3.57;;
5979;SDS011;3016;50.308;8.258;2023-07-31T05:48:48;20.27;;;2.40;;
5979;SDS011;3016;50.308;8.258;2023-07-31T05:51:48;23.33;;;3.20;;
5979;SDS011;3016;50.308;8.258;2023-07-31T05:54:49;19.60;;;2.90;;
5979;SDS011;3016;50.308;8.258;2023-07-31T05:57:50;23.97;;;3.77;;
5979;SDS011;3016;50.308;8.258;2023-07-31T06:00:51;25.50;;;3.10;;
5979;SDS011;3016;50.308;8.258;2023-07-31T06:03:51;19.20;;;3.00;;
5979;SDS011;3016;50.308;8.258;2023-07-31T06:06:52;18.53;;;3.13;;
5979;SDS011;3016;50.308;8.258;2023-07-31T06:09:53;18.40;;;2.87;;
5979;SDS011;3016;50.308;8.258;2023-07-31T06:12:55;19.47;;;2.90;;
5979;SDS011;3016;50.308;8.258;2023-07-31T06:15:57;20.50;;;3.33;;
5979;SDS011;3016;50.308;8.258;2023-07-31T06:18:59;20.70;;;3.00;;
5979;SDS011;3016;50.308;8.258;2023-07-31T06:21:59;21.40;;;3.20;;
5979;SDS011;3016;50.308;8.258;2023-07-31T06:25:00;20.33;;;3.37;;
5979;SDS011;3016;50.308;8.258;2023-07-31T06:28:01;19.50;;;2.60;;
5979;SDS011;3016;50.308;8.258;2023-07-31T06:31:01;20.00;;;3.00;;
5979;SDS011;3016;50.308;8.258;2023-07-31T06:34:02;19.80;;;2.60;;
5979;SDS011;3016;50.308;8.258;2023-07-31T06:37:03;20.80;;;3.33;;
5979;SDS011;3016;50.308;8.258;2023-07-31T06:40:04;19.87;;;3.40;;
5979;SDS011;3016;50.308;8.258;2023-07-31T06:43:07;19.80;;;3.13;;
5979;SDS011;3016;50.308;8.258;2023-07-31T06:46:08;22.00;;;2.70;;
5979;SDS011;3016;50.308;8.258;2023-07-31T06:49:09;22.00;;;3.10;;
5979;SDS011;3016;50.308;8.258;2023-07-31T06:52:10;20.07;;;3.10;;
5979;SDS011;3016;50.308;8.258;2023-07-31T06:55:18;21.30;;;3.60;;
5979;SDS011;3016;50.308;8.258;2023-07-31T06:58:21;24.20;;;4.10;;
5979;SDS011;3016;50.308;8.258;2023-07-31T07:01:22;23.50;;;3.93;;
5979;SDS011;3016;50.308;8.258;2023-07-31T07:04:23;20.60;;;3.20;;
5979;SDS011;3016;50.308;8.258;2023-07-31T07:07:23;21.37;;;2.60;;
5979;SDS011;3016;50.308;8.258;2023-07-31T07:10:24;19.27;;;3.10;;
5979;SDS011;3016;50.308;8.258;2023-07-31T07:13:25;22.10;;;3.57;;
5979;SDS011;3016;50.308;8.258;2023-07-31T07:16:25;21.57;;;3.70;;
5979;SDS011;3016;50.308;8.258;2023-07-31T07:19:28;22.40;;;4.10;;
5979;SDS011;3016;50.308;8.258;2023-07-31T07:22:29;20.77;;;3.67;;
5979;SDS011;3016;50.308;8.258;2023-07-31T07:25:30;25.10;;;3.70;;
5979;SDS011;3016;50.308;8.258;2023-07-31T07:28:30;20.07;;;3.37;;
5979;SDS011;3016;50.308;8.258;2023-07-31T07:31:31;20.40;;;2.80;;
5979;SDS011;3016;50.308;8.258;2023-07-31T07:34:32;19.17;;;2.73;;
5979;SDS011;3016;50.308;8.258;2023-07-31T07:37:32;21.83;;;3.57;;
5979;SDS011;3016;50.308;8.258;2023-07-31T07:40:38;21.77;;;3.50;;
5979;SDS011;3016;50.308;8.258;2023-07-31T07:43:39;19.83;;;3.00;;
5979;SDS011;3016;50.308;8.258;2023-07-31T07:46:40;19.10;;;2.97;;
5979;SDS011;3016;50.308;8.258;2023-07-31T07:49:42;19.50;;;3.00;;
5979;SDS011;3016;50.308;8.258;2023-07-31T07:52:43;21.20;;;3.33;;
5979;SDS011;3016;50.308;8.258;2023-07-31T07:55:43;19.30;;;3.00;;
5979;SDS011;3016;50.308;8.258;2023-07-31T07:58:44;21.73;;;3.40;;
5979;SDS011;3016;50.308;8.258;2023-07-31T08:01:48;19.93;;;3.33;;
5979;SDS011;3016;50.308;8.258;2023-07-31T08:04:49;20.10;;;2.50;;
5979;SDS011;3016;50.308;8.258;2023-07-31T08:07:50;19.37;;;2.93;;
5979;SDS011;3016;50.308;8.258;2023-07-31T08:10:51;23.70;;;3.50;;
5979;SDS011;3016;50.308;8.258;2023-07-31T08:13:52;19.67;;;2.93;;
5979;SDS011;3016;50.308;8.258;2023-07-31T08:16:53;18.37;;;2.80;;
5979;SDS011;3016;50.308;8.258;2023-07-31T08:19:53;21.47;;;2.87;;
5979;SDS011;3016;50.308;8.258;2023-07-31T08:22:54;25.00;;;3.13;;
5979;SDS011;3016;50.308;8.258;2023-07-31T08:25:55;20.23;;;3.53;;
5979;SDS011;3016;50.308;8.258;2023-07-31T08:28:55;25.63;;;2.53;;
5979;SDS011;3016;50.308;8.258;2023-07-31T08:31:57;19.70;;;2.43;;
5979;SDS011;3016;50.308;8.258;2023-07-31T08:34:58;20.47;;;3.30;;
5979;SDS011;3016;50.308;8.258;2023-07-31T08:37:58;19.43;;;3.23;;
5979;SDS011;3016;50.308;8.258;2023-07-31T08:40:59;22.20;;;3.20;;
5979;SDS011;3016;50.308;8.258;2023-07-31T08:44:00;22.63;;;3.43;;
5979;SDS011;3016;50.308;8.258;2023-07-31T08:47:02;20.53;;;3.40;;
5979;SDS011;3016;50.308;8.258;2023-07-31T08:50:03;21.60;;;3.23;;
5979;SDS011;3016;50.308;8.258;2023-07-31T08:53:05;22.83;;;3.10;;
5979;SDS011;3016;50.308;8.258;2023-07-31T08:56:06;21.17;;;3.47;;
5979;SDS011;3016;50.308;8.258;2023-07-31T08:59:07;20.53;;;3.17;;
5979;SDS011;3016;50.308;8.258;2023-07-31T09:02:09;18.50;;;2.53;;
5979;SDS011;3016;50.308;8.258;2023-07-31T09:05:10;20.00;;;2.87;;
5979;SDS011;3016;50.308;8.258;2023-07-31T09:08:13;21.47;;;3.50;;
5979;SDS011;3016;50.308;8.258;2023-07-31T09:11:18;23.43;;;3.40;;
5979;SDS011;3016;50.308;8.258;2023-07-31T09:14:21;20.10;;;3.47;;
5979;SDS011;3016;50.308;8.258;2023-07-31T09:17:31;22.47;;;3.93;;
5979;SDS011;3016;50.308;8.258;2023-07-31T09:20:39;20.60;;;3.47;;
5979;SDS011;3016;50.308;8.258;2023-07-31T09:23:40;21.50;;;3.47;;
5979;SDS011;3016;50.308;8.258;2023-07-31T09:26:42;20.07;;;3.40;;
5979;SDS011;3016;50.308;8.258;2023-07-31T09:29:42;24.20;;;4.30;;
5979;SDS011;3016;50.308;8.258;2023-07-31T09:32:44;21.40;;;3.60;;
5979;SDS011;3016;50.308;8.258;2023-07-31T09:35:46;22.43;;;3.73;;
5979;SDS011;3016;50.308;8.258;2023-07-31T09:38:48;25.70;;;4.30;;
5979;SDS011;3016;50.308;8.258;2023-07-31T09:41:54;20.30;;;3.30;;
5979;SDS011;3016;50.308;8.258;2023-07-31T09:45:01;23.10;;;4.13;;
5979;SDS011;3016;50.308;8.258;2023-07-31T09:48:11;19.67;;;3.60;;
5979;SDS011;3016;50.308;8.258;2023-07-31T09:51:12;19.90;;;3.50;;
5979;SDS011;3016;50.308;8.258;2023-07-31T09:54:14;21.63;;;4.07;;
5979;SDS011;3016;50.308;8.258;2023-07-31T09:57:16;21.07;;;3.73;;
5979;SDS011;3016;50.308;8.258;2023-07-31T10:00:18;22.30;;;3.90;;
5979;SDS011;3016;50.308;8.258;2023-07-31T10:03:19;19.70;;;3.30;;
5979;SDS011;3016;50.308;8.258;2023-07-31T10:06:20;19.50;;;3.63;;
5979;SDS011;3016;50.308;8.258;2023-07-31T10:09:22;21.83;;;3.30;;
5979;SDS011;3016;50.308;8.258;2023-07-31T10:12:26;19.10;;;3.57;;
5979;SDS011;3016;50.308;8.258;2023-07-31T10:15:28;22.37;;;3.43;;
5979;SDS011;3016;50.308;8.258;2023-07-31T10:18:30;21.27;;;3.57;;
5979;SDS011;3016;50.308;8.258;2023-07-31T10:21:31;21.63;;;3.47;;
5979;SDS011;3016;50.308;8.258;2023-07-31T10:24:35;21.00;;;3.33;;
5979;SDS011;3016;50.308;8.258;2023-07-31T10:27:38;18.90;;;2.80;;
5979;SDS011;3016;50.308;8.258;2023-07-31T10:30:39;20.97;;;2.93;;
5979;SDS011;3016;50.308;8.258;2023-07-31T10:33:41;19.73;;;2.70;;
5979;SDS011;3016;50.308;8.258;2023-07-31T10:36:41;21.30;;;3.50;;
5979;SDS011;3016;50.308;8.258;2023-07-31T10:39:42;20.73;;;3.63;;
5979;SDS011;3016;50.308;8.258;2023-07-31T10:42:47;19.30;;;3.33;;
5979;SDS011;3016;50.308;8.258;2023-07-31T10:45:54;23.27;;;4.17;;
5979;SDS011;3016;50.308;8.258;2023-07-31T10:48:59;18.90;;;2.53;;
5979;SDS011;3016;50.308;8.258;2023-07-31T10:52:03;19.10;;;2.60;;
5979;SDS011;3016;50.308;8.258;2023-07-31T10:55:14;19.73;;;3.00;;
5979;SDS011;3016;50.308;8.258;2023-07-31T10:58:48;20.40;;;3.63;;
5979;SDS011;3016;50.308;8.258;2023-07-31T11:02:02;19.53;;;3.30;;
5979;SDS011;3016;50.308;8.258;2023-07-31T11:05:07;21.40;;;3.37;;
5979;SDS011;3016;50.308;8.258;2023-07-31T11:08:15;20.77;;;3.43;;
5979;SDS011;3016;50.308;8.258;2023-07-31T11:11:27;20.40;;;4.37;;
5979;SDS011;3016;50.308;8.258;2023-07-31T11:14:27;20.90;;;3.40;;
5979;SDS011;3016;50.308;8.258;2023-07-31T11:17:28;20.40;;;3.90;;
5979;SDS011;3016;50.308;8.258;2023-07-31T11:20:29;20.97;;;3.80;;
5979;SDS011;3016;50.308;8.258;2023-07-31T11:23:36;18.97;;;2.73;;
5979;SDS011;3016;50.308;8.258;2023-07-31T11:26:37;18.60;;;2.97;;
5979;SDS011;3016;50.308;8.258;2023-07-31T11:29:38;18.43;;;2.83;;
5979;SDS011;3016;50.308;8.258;2023-07-31T11:32:39;18.10;;;2.93;;
5979;SDS011;3016;50.308;8.258;2023-07-31T11:35:49;21.80;;;3.43;;
5979;SDS011;3016;50.308;8.258;2023-07-31T11:38:50;22.87;;;3.37;;
5979;SDS011;3016;50.308;8.258;2023-07-31T11:41:51;18.40;;;2.80;;
5979;SDS011;3016;50.308;8.258;2023-07-31T11:44:51;21.60;;;3.50;;
5979;SDS011;3016;50.308;8.258;2023-07-31T11:47:52;20.40;;;2.70;;
5979;SDS011;3016;50.308;8.258;2023-07-31T11:50:58;22.10;;;3.40;;
5979;SDS011;3016;50.308;8.258;2023-07-31T11:54:01;18.63;;;2.77;;
5979;SDS011;3016;50.308;8.258;2023-07-31T11:57:02;22.43;;;3.43;;
5979;SDS011;3016;50.308;8.258;2023-07-31T12:00:05;18.90;;;2.47;;
5979;SDS011;3016;50.308;8.258;2023-07-31T12:03:09;19.07;;;2.70;;
5979;SDS011;3016;50.308;8.258;2023-07-31T12:06:10;18.20;;;2.43;;
5979;SDS011;3016;50.308;8.258;2023-07-31T12:09:11;21.77;;;3.07;;
5979;SDS011;3016;50.308;8.258;2023-07-31T12:12:19;19.10;;;3.10;;
5979;SDS011;3016;50.308;8.258;2023-07-31T12:15:21;18.70;;;2.90;;
5979;SDS011;3016;50.308;8.258;2023-07-31T12:18:22;19.10;;;2.50;;
5979;SDS011;3016;50.308;8.258;2023-07-31T12:21:25;26.20;;;2.87;;
5979;SDS011;3016;50.308;8.258;2023-07-31T12:24:27;22.00;;;2.97;;
5979;SDS011;3016;50.308;8.258;2023-07-31T12:27:32;20.77;;;3.03;;
5979;SDS011;3016;50.308;8.258;2023-07-31T12:30:34;20.10;;;3.03;;
5979;SDS011;3016;50.308;8.258;2023-07-31T12:33:35;18.20;;;2.30;;
5979;SDS011;3016;50.308;8.258;2023-07-31T12:36:38;20.50;;;3.10;;
5979;SDS011;3016;50.308;8.258;2023-07-31T12:39:39;21.00;;;2.80;;
5979;SDS011;3016;50.308;8.258;2023-07-31T12:42:41;19.60;;;2.50;;
5979;SDS011;3016;50.308;8.258;2023-07-31T12:45:41;18.57;;;2.00;;
5979;SDS011;3016;50.308;8.258;2023-07-31T12:48:42;20.70;;;2.10;;
5979;SDS011;3016;50.308;8.258;2023-07-31T12:51:43;20.87;;;2.57;;
5979;SDS011;3016;50.308;8.258;2023-07-31T12:54:43;19.50;;;2.20;;
5979;SDS011;3016;50.308;8.258;2023-07-31T12:57:44;18.27;;;2.20;;
5979;SDS011;3016;50.308;8.258;2023-07-31T13:00:45;21.40;;;2.40;;
5979;SDS011;3016;50.308;8.258;2023-07-31T13:03:46;19.40;;;2.90;;
5979;SDS011;3016;50.308;8.258;2023-07-31T13:06:46;18.30;;;2.17;;
5979;SDS011;3016;50.308;8.258;2023-07-31T13:09:47;19.33;;;2.30;;
5979;SDS011;3016;50.308;8.258;2023-07-31T13:12:48;22.33;;;3.00;;
5979;SDS011;3016;50.308;8.258;2023-07-31T13:15:49;20.23;;;2.73;;
5979;SDS011;3016;50.308;8.258;2023-07-31T13:18:50;19.37;;;2.90;;
5979;SDS011;3016;50.308;8.258;2023-07-31T13:21:51;19.40;;;2.83;;
5979;SDS011;3016;50.308;8.258;2023-07-31T13:24:52;20.50;;;3.20;;
5979;SDS011;3016;50.308;8.258;2023-07-31T13:27:53;18.77;;;2.47;;
5979;SDS011;3016;50.308;8.258;2023-07-31T13:30:53;20.17;;;2.77;;
5979;SDS011;3016;50.308;8.258;2023-07-31T13:33:54;20.93;;;3.27;;
5979;SDS011;3016;50.308;8.258;2023-07-31T13:36:55;20.93;;;2.80;;
5979;SDS011;3016;50.308;8.258;2023-07-31T13:39:56;19.57;;;2.47;;
5979;SDS011;3016;50.308;8.258;2023-07-31T13:42:56;18.90;;;2.30;;
5979;SDS011;3016;50.308;8.258;2023-07-31T13:45:57;21.57;;;3.10;;
5979;SDS011;3016;50.308;8.258;2023-07-31T13:49:03;19.40;;;2.33;;
5979;SDS011;3016;50.308;8.258;2023-07-31T13:52:04;18.53;;;2.33;;
5979;SDS011;3016;50.308;8.258;2023-07-31T13:55:05;21.50;;;2.80;;
5979;SDS011;3016;50.308;8.258;2023-07-31T13:58:06;19.53;;;2.77;;
5979;SDS011;3016;50.308;8.258;2023-07-31T14:01:07;18.00;;;2.17;;
5979;SDS011;3016;50.308;8.258;2023-07-31T14:04:07;20.13;;;2.47;;
5979;SDS011;3016;50.308;8.258;2023-07-31T14:07:08;19.00;;;2.50;;
5979;SDS011;3016;50.308;8.258;2023-07-31T14:10:09;18.40;;;2.60;;
5979;SDS011;3016;50.308;8.258;2023-07-31T14:13:09;20.40;;;2.50;;
5979;SDS011;3016;50.308;8.258;2023-07-31T14:16:10;18.90;;;2.70;;
5979;SDS011;3016;50.308;8.258;2023-07-31T14:19:11;20.50;;;2.33;;
5979;SDS011;3016;50.308;8.258;2023-07-31T14:22:12;19.83;;;2.20;;
5979;SDS011;3016;50.308;8.258;2023-07-31T14:25:12;20.50;;;2.50;;
5979;SDS011;3016;50.308;8.258;2023-07-31T14:28:13;19.50;;;2.37;;
5979;SDS011;3016;50.308;8.258;2023-07-31T14:31:14;18.43;;;2.00;;
5979;SDS011;3016;50.308;8.258;2023-07-31T14:34:14;18.20;;;2.00;;
5979;SDS011;3016;50.308;8.258;2023-07-31T14:37:16;19.13;;;1.90;;
5979;SDS011;3016;50.308;8.258;2023-07-31T14:40:17;18.70;;;1.90;;
5979;SDS011;3016;50.308;8.258;2023-07-31T14:43:18;20.43;;;2.23;;
5979;SDS011;3016;50.308;8.258;2023-07-31T14:46:18;18.40;;;1.80;;
5979;SDS011;3016;50.308;8.258;2023-07-31T14:49:19;17.83;;;1.50;;
5979;SDS011;3016;50.308;8.258;2023-07-31T14:52:20;18.03;;;1.70;;
5979;SDS011;3016;50.308;8.258;2023-07-31T14:55:21;17.80;;;1.67;;
5979;SDS011;3016;50.308;8.258;2023-07-31T14:58:21;17.60;;;1.50;;
5979;SDS011;3016;50.308;8.258;2023-07-31T15:01:23;17.87;;;1.60;;
5979;SDS011;3016;50.308;8.258;2023-07-31T15:04:24;18.17;;;1.80;;
5979;SDS011;3016;50.308;8.258;2023-07-31T15:07:24;19.17;;;2.37;;
5979;SDS011;3016;50.308;8.258;2023-07-31T15:10:25;18.50;;;1.70;;
5979;SDS011;3016;50.308;8.258;2023-07-31T15:13:26;21.60;;;1.90;;
5979;SDS011;3016;50.308;8.258;2023-07-31T15:16:27;17.90;;;1.63;;
5979;SDS011;3016;50.308;8.258;2023-07-31T15:19:29;19.30;;;2.47;;
5979;SDS011;3016;50.308;8.258;2023-07-31T15:22:30;17.70;;;1.77;;
5979;SDS011;3016;50.308;8.258;2023-07-31T15:25:31;21.73;;;2.57;;
5979;SDS011;3016;50.308;8.258;2023-07-31T15:28:31;19.13;;;2.67;;
5979;SDS011;3016;50.308;8.258;2023-07-31T15:31:34;19.33;;;1.97;;
5979;SDS011;3016;50.308;8.258;2023-07-31T15:34:35;19.30;;;2.30;;
5979;SDS011;3016;50.308;8.258;2023-07-31T15:37:36;18.70;;;2.30;;
5979;SDS011;3016;50.308;8.258;2023-07-31T15:40:38;18.40;;;2.10;;
5979;SDS011;3016;50.308;8.258;2023-07-31T15:43:39;18.73;;;2.10;;
5979;SDS011;3016;50.308;8.258;2023-07-31T15:46:39;18.20;;;1.90;;
5979;SDS011;3016;50.308;8.258;2023-07-31T15:49:40;19.37;;;2.10;;
5979;SDS011;3016;50.308;8.258;2023-07-31T15:52:41;19.13;;;1.90;;
5979;SDS011;3016;50.308;8.258;2023-07-31T15:55:42;19.03;;;1.93;;
5979;SDS011;3016;50.308;8.258;2023-07-31T15:58:42;17.90;;;1.40;;
5979;SDS011;3016;50.308;8.258;2023-07-31T16:01:43;19.27;;;1.90;;
5979;SDS011;3016;50.308;8.258;2023-07-31T16:04:44;17.50;;;1.50;;
5979;SDS011;3016;50.308;8.258;2023-07-31T16:07:44;20.63;;;2.40;;
5979;SDS011;3016;50.308;8.258;2023-07-31T16:10:45;19.77;;;2.03;;
5979;SDS011;3016;50.308;8.258;2023-07-31T16:13:46;17.93;;;1.80;;
5979;SDS011;3016;50.308;8.258;2023-07-31T16:16:47;18.70;;;1.90;;
5979;SDS011;3016;50.308;8.258;2023-07-31T16:19:48;19.20;;;2.07;;
5979;SDS011;3016;50.308;8.258;2023-07-31T16:22:49;18.50;;;2.60;;
5979;SDS011;3016;50.308;8.258;2023-07-31T16:25:49;18.93;;;1.83;;
5979;SDS011;3016;50.308;8.258;2023-07-31T16:28:53;18.40;;;2.00;;
5979;SDS011;3016;50.308;8.258;2023-07-31T16:31:53;20.13;;;2.50;;
5979;SDS011;3016;50.308;8.258;2023-07-31T16:34:54;17.80;;;1.90;;
5979;SDS011;3016;50.308;8.258;2023-07-31T16:37:55;17.70;;;1.73;;
5979;SDS011;3016;50.308;8.258;2023-07-31T16:40:56;19.47;;;1.97;;
5979;SDS011;3016;50.308;8.258;2023-07-31T16:43:56;19.90;;;2.37;;
5979;SDS011;3016;50.308;8.258;2023-07-31T16:46:57;19.00;;;2.30;;
5979;SDS011;3016;50.308;8.258;2023-07-31T16:49:58;20.53;;;2.70;;
5979;SDS011;3016;50.308;8.258;2023-07-31T16:52:58;18.97;;;2.20;;
5979;SDS011;3016;50.308;8.258;2023-07-31T16:55:59;17.60;;;2.10;;
5979;SDS011;3016;50.308;8.258;2023-07-31T16:59:00;21.03;;;3.00;;
5979;SDS011;3016;50.308;8.258;2023-07-31T17:02:01;20.23;;;2.60;;
5979;SDS011;3016;50.308;8.258;2023-07-31T17:05:03;21.47;;;2.20;;
5979;SDS011;3016;50.308;8.258;2023-07-31T17:08:05;19.47;;;2.20;;
5979;SDS011;3016;50.308;8.258;2023-07-31T17:11:05;18.43;;;2.50;;
5979;SDS011;3016;50.308;8.258;2023-07-31T17:14:06;18.50;;;2.23;;
5979;SDS011;3016;50.308;8.258;2023-07-31T17:17:07;19.10;;;2.47;;
5979;SDS011;3016;50.308;8.258;2023-07-31T17:20:08;19.30;;;2.50;;
5979;SDS011;3016;50.308;8.258;2023-07-31T17:23:09;19.63;;;2.70;;
5979;SDS011;3016;50.308;8.258;2023-07-31T17:26:09;20.07;;;3.13;;
5979;SDS011;3016;50.308;8.258;2023-07-31T17:29:13;20.87;;;3.10;;
5979;SDS011;3016;50.308;8.258;2023-07-31T17:32:18;19.07;;;2.33;;
5979;SDS011;3016;50.308;8.258;2023-07-31T17:35:20;18.47;;;2.40;;
5979;SDS011;3016;50.308;8.258;2023-07-31T17:38:21;19.03;;;2.50;;
5979;SDS011;3016;50.308;8.258;2023-07-31T17:41:21;18.40;;;2.20;;
5979;SDS011;3016;50.308;8.258;2023-07-31T17:44:24;18.40;;;2.80;;
5979;SDS011;3016;50.308;8.258;2023-07-31T17:47:24;19.27;;;2.60;;
5979;SDS011;3016;50.308;8.258;2023-07-31T17:50:25;20.27;;;2.90;;
5979;SDS011;3016;50.308;8.258;2023-07-31T17:53:26;19.07;;;2.77;;
5979;SDS011;3016;50.308;8.258;2023-07-31T17:56:27;21.10;;;3.00;;
5979;SDS011;3016;50.308;8.258;2023-07-31T17:59:28;19.43;;;3.00;;
5979;SDS011;3016;50.308;8.258;2023-07-31T18:02:29;20.30;;;4.00;;
5979;SDS011;3016;50.308;8.258;2023-07-31T18:05:29;20.30;;;3.47;;
5979;SDS011;3016;50.308;8.258;2023-07-31T18:08:30;21.00;;;3.70;;
5979;SDS011;3016;50.308;8.258;2023-07-31T18:11:31;20.67;;;3.00;;
5979;SDS011;3016;50.308;8.258;2023-07-31T18:14:32;20.00;;;3.23;;
5979;SDS011;3016;50.308;8.258;2023-07-31T18:17:34;20.67;;;4.20;;
5979;SDS011;3016;50.308;8.258;2023-07-31T18:20:35;20.50;;;3.87;;
5979;SDS011;3016;50.308;8.258;2023-07-31T18:23:36;18.47;;;2.90;;
5979;SDS011;3016;50.308;8.258;2023-07-31T18:26:37;19.93;;;2.80;;
5979;SDS011;3016;50.308;8.258;2023-07-31T18:29:41;22.00;;;3.60;;
5979;SDS011;3016;50.308;8.258;2023-07-31T18:32:41;19.67;;;3.27;;
5979;SDS011;3016;50.308;8.258;2023-07-31T18:35:42;20.37;;;4.00;;